Newcastle, WA

8:55 AM PDT on March 27, 2015 (GMT -0700)
Seattle-Tacoma International | | Change Station
CLOSE
Current Station
Airport
Location: Seattle,
Elevation: 433 ft
Nearby Weather Stations

Elev 433 ft 47.44 °N, 122.31 °W | Updated 15 minutes ago

Partly Cloudy
Partly Cloudy
50 °F
Feels Like 50 °F
N
8
Wind Variable Wind from SE

Today
High -- | Low -- °F
--% Chance of Precip.
Yesterday
High -- | Low -- °F
Precip. -- in
6:57 AM 7:31 PM
First Quarter, 53% visible
Pressure 30.04 in
Visibility 0.8 miles
Clouds Scattered Clouds 100 ft
Mostly Cloudy 20000 ft
Dew Point 48 °F
Humidity 94%
Rainfall 0.00 in
Snow Depth Not available.
UV 1 out of 12
Pollen 9.50 out of 12
Air Quality Not available.
Flu Activity Not available.
SPECI KSEA 271540Z 14007KT 3/4SM R16L/3500VP6000FT BR SCT001 BKN200 10/09 A3004 RMK AO2 TWR VIS 10

More Conditions Fewer Conditions

Pressure 30.04 in
Visibility 0.8 miles
Clouds Scattered Clouds 100 ft
Mostly Cloudy 20000 ft
Dew Point 48 °F
Humidity 94%
Rainfall 0.00 in
Snow Depth Not available.
UV 1 out of 12
Pollen 9.50 out of 12
Air Quality Not available.
Flu Activity Not available.
SPECI KSEA 271540Z 14007KT 3/4SM R16L/3500VP6000FT BR SCT001 BKN200 10/09 A3004 RMK AO2 TWR VIS 10

More Conditions Fewer Conditions

10-Day Weather Forecast

Almanac

Astronomy

Mar. 27, 2015 Rise Set
Actual Time
Civil Twilight
Nautical Twilight
Astronomical Twilight
Moon
Length of Visible Light
Length of Day
Tomorrow will be .
, % of the Moon is Illuminated

Today's Extremes

State Highs State Lows

Community

WunderPhotos

Upload Photos

1,808,762 photos uploaded!

WunderBlogs® & News

Nearby

Air Quality

  Air Quality AQ Index Pollutant
Not available.

Snow Depth

Station Depth Elevation

Earthquake Activity

City Distance Mag. Time & Date
Minimum magnitude displayed is 2.5.

Coastal Water Temperatures

Place Temperature

Stations

Nearby Weather Stations

Station Location Temp. Windchill Dew Point Humidity Wind Precip. Elev Updated Type